Terminal Aerodrome Forecast
Issued by NWS Bismarck, ND

Home | Current Version | Previous Version | Text Only | Print | Product List | Glossary On
Versions: 1 2 3 4 5 6 7 8 9 10 11 12 13 14 15 16
000
FTUS43 KBIS 171700
TAFISN
TAF
KISN 171720Z 1718/1818 13015G22KT P6SM BKN040
     FM180100 12012KT P6SM BKN030
     FM180600 12010KT P6SM VCSH BKN020
     FM181400 13014KT P6SM BKN040=

USA.gov is the U.S. government's official web portal to all federal, state and local government web resources and services.